Time;durP1;ratioP1;P1;durP2;ratioP2;P2;SDS_P1;SDS_P2;PMS_P1;PMS_P2;Temp;Humidity;BMP_temperature;BMP_pressure;BME280_temperature;BME280_humidity;BME280_pressure;Samples;Min_cycle;Max_cycle;Signal;HPM_P1;HPM_P2
2021/08/03 00:00:32;;;;;;;4.78;1.80;;;20.90;63.60;;;;;;5053060;28;20024;-55
2021/08/03 00:02:58;;;;;;;4.28;1.73;;;20.90;63.60;;;;;;5052884;28;20021;-55
2021/08/03 00:05:27;;;;;;;4.40;1.70;;;20.90;63.60;;;;;;5052867;28;20075;-57
2021/08/03 00:08:09;;;;;;;8.93;2.17;;;20.90;63.60;;;;;;5052870;28;20095;-56
2021/08/03 00:10:36;;;;;;;4.32;1.50;;;20.90;63.60;;;;;;5053168;28;20368;-55
2021/08/03 00:13:02;;;;;;;4.45;1.55;;;20.90;63.60;;;;;;5052694;28;20057;-56
2021/08/03 00:15:28;;;;;;;3.22;1.50;;;20.90;63.50;;;;;;5052853;28;20017;-54
2021/08/03 00:17:55;;;;;;;14.80;2.85;;;20.90;63.50;;;;;;5052905;28;20044;-57
2021/08/03 00:20:22;;;;;;;4.15;1.60;;;20.90;63.50;;;;;;5054628;28;20021;-57
2021/08/03 00:22:48;;;;;;;3.42;1.60;;;20.90;63.50;;;;;;5056099;28;20037;-56
2021/08/03 00:25:14;;;;;;;6.10;2.03;;;20.80;63.50;;;;;;5053076;28;20067;-56
2021/08/03 00:27:43;;;;;;;5.70;2.30;;;20.80;63.50;;;;;;5052682;28;20025;-55
2021/08/03 00:30:09;;;;;;;4.03;1.67;;;20.90;63.50;;;;;;5052723;28;20032;-54
2021/08/03 00:32:35;;;;;;;4.32;1.50;;;20.90;63.40;;;;;;5052789;28;20291;-54
2021/08/03 00:35:01;;;;;;;4.28;1.48;;;20.80;63.40;;;;;;5052530;28;20055;-56
2021/08/03 00:37:26;;;;;;;4.95;1.60;;;20.80;63.50;;;;;;5052620;28;20490;-57
2021/08/03 00:39:52;;;;;;;3.90;1.77;;;20.80;63.50;;;;;;5052867;28;20032;-55
2021/08/03 00:42:17;;;;;;;4.47;1.52;;;20.80;63.50;;;;;;5057929;28;20021;-55
2021/08/03 00:44:44;;;;;;;4.97;1.50;;;20.80;63.40;;;;;;5061350;28;20035;-56
2021/08/03 00:47:11;;;;;;;4.18;1.65;;;20.80;63.40;;;;;;5055448;28;20037;-57
2021/08/03 00:49:37;;;;;;;4.35;1.65;;;20.80;63.50;;;;;;5051606;28;20388;-56
2021/08/03 00:52:04;;;;;;;5.47;1.70;;;20.80;63.40;;;;;;5052613;28;20032;-56
2021/08/03 00:54:31;;;;;;;2.60;1.52;;;20.80;63.40;;;;;;5052423;28;20087;-56
2021/08/03 00:56:58;;;;;;;3.60;1.60;;;20.80;63.40;;;;;;5052351;28;20037;-56
2021/08/03 00:59:23;;;;;;;3.75;1.40;;;20.80;63.40;;;;;;5052782;28;20032;-58
2021/08/03 01:01:49;;;;;;;4.85;1.95;;;20.80;63.40;;;;;;5052623;28;20033;-57
2021/08/03 01:04:15;;;;;;;3.83;1.70;;;20.80;63.40;;;;;;5057419;28;20056;-56
2021/08/03 01:06:47;;;;;;;3.67;1.55;;;20.70;63.40;;;;;;5061812;28;20071;-56
2021/08/03 01:09:36;;;;;;;4.15;1.65;;;20.70;63.40;;;;;;5056416;28;20036;-58
2021/08/03 01:12:14;;;;;;;3.58;1.58;;;20.80;63.40;;;;;;5056339;28;20082;-56
2021/08/03 01:14:55;;;;;;;5.28;1.80;;;20.70;63.40;;;;;;5056048;28;20029;-57
2021/08/03 01:17:30;;;;;;;4.38;1.90;;;20.70;63.40;;;;;;5054487;28;20548;-57
2021/08/03 01:20:07;;;;;;;3.47;1.48;;;20.70;63.30;;;;;;5056067;28;20032;-58
2021/08/03 01:23:18;;;;;;;3.83;1.45;;;20.70;63.30;;;;;;5055809;28;20029;-57
2021/08/03 01:26:04;;;;;;;3.20;1.30;;;20.70;63.30;;;;;;5056039;28;20024;-56
2021/08/03 01:28:37;;;;;;;4.03;1.73;;;20.70;63.30;;;;;;5055626;28;20033;-57
2021/08/03 01:31:10;;;;;;;6.20;1.80;;;20.70;63.30;;;;;;5055696;28;20029;-57
2021/08/03 01:33:41;;;;;;;6.25;1.77;;;20.70;63.30;;;;;;5055478;28;20048;-55
2021/08/03 01:36:07;;;;;;;4.20;1.67;;;20.70;63.30;;;;;;5055473;28;20465;-57
2021/08/03 01:38:37;;;;;;;4.20;1.75;;;20.60;63.30;;;;;;5055323;28;20067;-53
2021/08/03 01:41:05;;;;;;;5.57;1.80;;;20.60;63.30;;;;;;5055695;28;20022;-56
2021/08/03 01:43:33;;;;;;;5.40;2.00;;;20.70;63.30;;;;;;5055288;28;20066;-55
2021/08/03 01:45:59;;;;;;;4.10;1.60;;;20.70;63.30;;;;;;5055566;28;20044;-56
2021/08/03 01:48:25;;;;;;;4.38;1.65;;;20.60;63.30;;;;;;5055224;28;20013;-56
2021/08/03 01:50:53;;;;;;;4.43;1.90;;;20.70;63.20;;;;;;5055172;28;20531;-58
2021/08/03 01:53:20;;;;;;;3.13;1.33;;;20.60;63.20;;;;;;5055094;28;20067;-57
2021/08/03 01:55:46;;;;;;;4.43;1.70;;;20.60;63.30;;;;;;5054999;28;20408;-57
2021/08/03 01:58:14;;;;;;;4.15;1.80;;;20.60;63.20;;;;;;5055088;28;20116;-54
2021/08/03 02:00:42;;;;;;;2.50;1.35;;;20.60;63.20;;;;;;5055337;28;20029;-57
2021/08/03 02:03:10;;;;;;;4.43;1.80;;;20.60;63.20;;;;;;5055021;28;20558;-55
2021/08/03 02:05:37;;;;;;;5.32;1.48;;;20.60;63.20;;;;;;5059005;28;20021;-57
2021/08/03 02:08:05;;;;;;;5.45;1.70;;;20.50;63.20;;;;;;5056829;28;20431;-56
2021/08/03 02:10:31;;;;;;;3.97;1.52;;;20.60;63.20;;;;;;5054774;28;20499;-56
2021/08/03 02:12:57;;;;;;;5.47;2.00;;;20.60;63.20;;;;;;5054838;28;20104;-56
2021/08/03 02:15:22;;;;;;;3.15;1.52;;;20.50;63.20;;;;;;5053952;28;20424;-56
2021/08/03 02:17:48;;;;;;;4.63;1.88;;;20.50;63.20;;;;;;5054611;28;20059;-57
2021/08/03 02:20:13;;;;;;;4.88;1.75;;;20.50;63.20;;;;;;5054846;28;20063;-55
2021/08/03 02:22:39;;;;;;;6.15;1.77;;;20.50;63.20;;;;;;5054681;28;20033;-56
2021/08/03 02:25:08;;;;;;;4.20;1.83;;;20.50;63.20;;;;;;5054749;28;20024;-54
2021/08/03 02:27:33;;;;;;;3.67;1.65;;;20.50;63.10;;;;;;5054605;28;20057;-57
2021/08/03 02:29:59;;;;;;;4.53;1.80;;;20.50;63.10;;;;;;5054450;28;20515;-56
2021/08/03 02:32:33;;;;;;;3.50;1.50;;;20.50;63.10;;;;;;5054492;28;20381;-55
2021/08/03 02:35:09;;;;;;;4.82;1.55;;;20.50;63.10;;;;;;5054203;28;20526;-57
2021/08/03 02:37:38;;;;;;;3.80;1.52;;;20.50;63.10;;;;;;5054412;28;20068;-56
2021/08/03 02:40:07;;;;;;;5.60;1.90;;;20.50;63.10;;;;;;5054478;28;20021;-55
2021/08/03 02:42:33;;;;;;;4.75;1.63;;;20.50;63.10;;;;;;5054509;28;20029;-56
2021/08/03 02:45:03;;;;;;;4.45;1.67;;;20.50;63.10;;;;;;5054238;28;20055;-56
2021/08/03 02:47:37;;;;;;;5.30;1.70;;;20.50;63.10;;;;;;5054079;28;20507;-57
2021/08/03 02:50:06;;;;;;;3.85;1.67;;;20.50;63.00;;;;;;5054381;28;20040;-57
2021/08/03 02:52:34;;;;;;;4.63;1.83;;;20.50;63.00;;;;;;5054045;28;20052;-57
2021/08/03 02:55:17;;;;;;;4.15;1.73;;;20.50;63.00;;;;;;5054277;28;20413;-56
2021/08/03 02:57:46;;;;;;;5.70;1.70;;;20.50;63.00;;;;;;5054148;28;20033;-57
2021/08/03 03:00:13;;;;;;;4.32;1.70;;;20.50;63.00;;;;;;5053840;28;20108;-58
2021/08/03 03:02:44;;;;;;;3.50;1.70;;;20.50;63.00;;;;;;5053854;28;20071;-57
2021/08/03 03:05:28;;;;;;;3.45;1.52;;;20.50;63.00;;;;;;5054089;28;20072;-56
2021/08/03 03:08:07;;;;;;;2.80;1.55;;;20.50;63.00;;;;;;5053806;28;20027;-56
2021/08/03 03:10:38;;;;;;;4.18;1.55;;;20.50;63.00;;;;;;5053881;28;20464;-57
2021/08/03 03:13:26;;;;;;;3.15;1.42;;;20.50;62.90;;;;;;5054614;28;20029;-56
2021/08/03 03:15:52;;;;;;;3.03;1.50;;;20.50;62.90;;;;;;5054579;28;20048;-57
2021/08/03 03:18:19;;;;;;;4.03;1.17;;;20.50;62.90;;;;;;5054503;28;20033;-57
2021/08/03 03:20:47;;;;;;;3.53;1.42;;;20.50;63.00;;;;;;5053735;28;20021;-57
2021/08/03 03:23:17;;;;;;;3.70;1.50;;;20.50;63.00;;;;;;5053662;28;20033;-57
2021/08/03 03:25:44;;;;;;;4.60;1.90;;;20.50;62.90;;;;;;5053283;28;20025;-57
2021/08/03 03:28:12;;;;;;;4.45;1.60;;;20.40;62.90;;;;;;5053671;28;20044;-57
2021/08/03 03:30:39;;;;;;;2.88;1.50;;;20.50;62.90;;;;;;5053443;28;20400;-57
2021/08/03 03:33:05;;;;;;;3.15;1.60;;;20.50;62.90;;;;;;5053287;28;20112;-56
2021/08/03 03:35:33;;;;;;;2.88;1.50;;;20.40;62.80;;;;;;5053158;28;20619;-55
2021/08/03 03:38:00;;;;;;;4.28;1.70;;;20.50;62.80;;;;;;5051819;28;20123;-54
2021/08/03 03:40:26;;;;;;;4.38;1.67;;;20.50;62.80;;;;;;5054049;28;20519;-57
2021/08/03 03:42:55;;;;;;;3.47;1.55;;;20.50;62.80;;;;;;5058599;28;20036;-57
2021/08/03 03:45:20;;;;;;;3.63;1.35;;;20.40;62.80;;;;;;5053098;28;20023;-56
2021/08/03 03:48:23;;;;;;;4.35;1.58;;;20.40;62.80;;;;;;5052981;28;20020;-54
2021/08/03 03:50:53;;;;;;;6.07;1.85;;;20.40;62.80;;;;;;5030732;28;20149;-57
2021/08/03 03:53:23;;;;;;;4.50;1.70;;;20.40;62.80;;;;;;5049280;28;20044;-55
2021/08/03 03:55:57;;;;;;;4.03;1.63;;;20.40;62.80;;;;;;5053011;28;20108;-55
2021/08/03 03:58:23;;;;;;;3.78;1.50;;;20.40;62.80;;;;;;5052928;28;20032;-56
2021/08/03 04:00:49;;;;;;;3.97;1.60;;;20.40;62.80;;;;;;5052915;28;20421;-57
2021/08/03 04:03:18;;;;;;;4.25;1.70;;;20.40;62.80;;;;;;5052861;28;20485;-57
2021/08/03 04:05:46;;;;;;;4.10;1.73;;;20.40;62.80;;;;;;5053123;28;20049;-57
2021/08/03 04:08:11;;;;;;;4.05;1.63;;;20.40;62.80;;;;;;5052819;28;20032;-56
2021/08/03 04:10:38;;;;;;;2.78;1.33;;;20.40;62.80;;;;;;5052693;28;20033;-57
2021/08/03 04:13:04;;;;;;;4.25;1.67;;;20.40;62.70;;;;;;5053022;28;20021;-56
2021/08/03 04:15:33;;;;;;;4.38;1.88;;;20.40;62.80;;;;;;5052729;28;20025;-56
2021/08/03 04:17:59;;;;;;;3.60;1.63;;;20.40;62.70;;;;;;5052734;28;20127;-56
2021/08/03 04:20:25;;;;;;;4.05;1.73;;;20.40;62.70;;;;;;5052727;28;20437;-57
2021/08/03 04:22:51;;;;;;;3.95;1.52;;;20.40;62.70;;;;;;5052659;28;20025;-56
2021/08/03 04:25:17;;;;;;;3.90;1.70;;;20.40;62.70;;;;;;5052609;28;20469;-57
2021/08/03 04:27:42;;;;;;;3.97;1.67;;;20.40;62.60;;;;;;5052583;28;20040;-55
2021/08/03 04:30:10;;;;;;;3.83;1.70;;;20.40;62.60;;;;;;5052531;28;20021;-55
2021/08/03 04:32:35;;;;;;;3.40;1.58;;;20.30;62.70;;;;;;5052607;28;20029;-56
2021/08/03 04:35:01;;;;;;;3.00;1.52;;;20.40;62.60;;;;;;5052495;28;20044;-55
2021/08/03 04:37:26;;;;;;;4.82;1.73;;;20.40;62.60;;;;;;5053727;28;20025;-55
2021/08/03 04:39:52;;;;;;;4.30;1.50;;;20.40;62.60;;;;;;5056558;28;20029;-57
2021/08/03 04:42:18;;;;;;;3.90;1.60;;;20.40;62.60;;;;;;5056550;28;20021;-57
2021/08/03 04:44:44;;;;;;;4.53;1.77;;;20.40;62.60;;;;;;5056450;28;20021;-57
2021/08/03 04:47:09;;;;;;;4.68;1.58;;;20.40;62.60;;;;;;5056462;28;20108;-55
2021/08/03 04:49:35;;;;;;;4.32;1.83;;;20.30;62.60;;;;;;5056424;28;20017;-57
2021/08/03 04:52:00;;;;;;;3.78;1.38;;;20.40;62.60;;;;;;5056381;28;20524;-54
2021/08/03 04:54:26;;;;;;;3.45;1.50;;;20.40;62.50;;;;;;5056551;28;20419;-57
2021/08/03 04:56:52;;;;;;;4.05;1.42;;;20.30;62.50;;;;;;5056298;28;20033;-58
2021/08/03 04:59:19;;;;;;;2.67;1.23;;;20.40;62.50;;;;;;5056306;28;20135;-57
2021/08/03 05:01:46;;;;;;;3.38;1.60;;;20.40;62.50;;;;;;5056396;28;20392;-57
2021/08/03 05:04:11;;;;;;;3.70;1.60;;;20.40;62.50;;;;;;5056301;28;20037;-57
2021/08/03 05:06:37;;;;;;;3.92;1.52;;;20.40;62.40;;;;;;5056084;28;20103;-55
2021/08/03 05:09:02;;;;;;;4.40;1.73;;;20.40;62.40;;;;;;5056024;28;20066;-57
2021/08/03 05:11:28;;;;;;;3.60;1.60;;;20.40;62.40;;;;;;5055939;28;20079;-58
2021/08/03 05:13:53;;;;;;;4.57;1.83;;;20.40;62.40;;;;;;5062707;28;20086;-56
2021/08/03 05:16:19;;;;;;;3.60;1.50;;;20.40;62.40;;;;;;5055990;28;20025;-54
2021/08/03 05:18:44;;;;;;;5.22;1.65;;;20.40;62.30;;;;;;5055733;28;20032;-55
2021/08/03 05:21:10;;;;;;;4.22;1.80;;;20.40;62.30;;;;;;5055812;28;20025;-55
2021/08/03 05:23:36;;;;;;;3.78;1.80;;;20.40;62.30;;;;;;5055938;28;20175;-53
2021/08/03 05:26:01;;;;;;;3.35;1.65;;;20.40;62.30;;;;;;5055930;28;20021;-56
2021/08/03 05:28:27;;;;;;;2.90;1.30;;;20.40;62.30;;;;;;5055648;28;20025;-57
2021/08/03 05:30:52;;;;;;;4.45;1.70;;;20.40;62.30;;;;;;5055912;28;20047;-57
2021/08/03 05:33:17;;;;;;;5.10;1.50;;;20.40;62.30;;;;;;5055464;28;20362;-56
2021/08/03 05:35:43;;;;;;;3.38;1.60;;;20.40;62.30;;;;;;5055499;28;20037;-56
2021/08/03 05:38:09;;;;;;;3.60;1.55;;;20.40;62.30;;;;;;5055620;28;20039;-56
2021/08/03 05:40:34;;;;;;;4.15;1.48;;;20.40;62.40;;;;;;5055565;28;20021;-56
2021/08/03 05:43:00;;;;;;;3.20;1.50;;;20.40;62.30;;;;;;5055471;28;20115;-56
2021/08/03 05:45:27;;;;;;;3.97;1.40;;;20.40;62.30;;;;;;5055341;28;20023;-56
2021/08/03 05:47:53;;;;;;;3.28;1.40;;;20.40;62.30;;;;;;5055385;28;20033;-55
2021/08/03 05:50:18;;;;;;;3.25;1.70;;;20.40;62.30;;;;;;5054190;28;20032;-56
2021/08/03 05:52:44;;;;;;;3.53;1.50;;;20.40;62.20;;;;;;5055120;28;20035;-57
2021/08/03 05:55:09;;;;;;;3.28;1.35;;;20.40;62.20;;;;;;5055191;28;20523;-56
2021/08/03 05:57:35;;;;;;;2.75;1.27;;;20.40;62.20;;;;;;5055240;28;20040;-54
2021/08/03 06:00:00;;;;;;;3.15;1.40;;;20.40;62.20;;;;;;5055090;28;20029;-52
2021/08/03 06:02:26;;;;;;;3.35;1.45;;;20.40;62.20;;;;;;5055180;28;20021;-55
2021/08/03 06:04:52;;;;;;;4.80;1.70;;;20.40;62.20;;;;;;5058358;28;20104;-57
2021/08/03 06:07:21;;;;;;;3.13;1.48;;;20.40;62.10;;;;;;5055208;28;20025;-56
2021/08/03 06:09:49;;;;;;;3.47;1.70;;;20.40;62.10;;;;;;5054845;28;20032;-57
2021/08/03 06:12:16;;;;;;;4.85;1.70;;;20.40;62.00;;;;;;5055091;28;20024;-57
2021/08/03 06:14:44;;;;;;;4.38;1.80;;;20.50;62.00;;;;;;5054606;28;20388;-57
2021/08/03 06:17:13;;;;;;;4.30;1.70;;;20.40;62.00;;;;;;5054812;28;20041;-57
2021/08/03 06:19:57;;;;;;;2.67;1.30;;;20.50;62.00;;;;;;5054504;28;20103;-56
2021/08/03 06:22:22;;;;;;;3.53;1.25;;;20.50;62.00;;;;;;5054631;28;20104;-56
2021/08/03 06:24:48;;;;;;;5.22;1.75;;;20.50;62.00;;;;;;5054604;28;20167;-55
2021/08/03 06:27:16;;;;;;;3.88;1.70;;;20.50;62.00;;;;;;5054440;28;20092;-56
2021/08/03 06:29:43;;;;;;;3.45;1.45;;;20.50;61.90;;;;;;5061747;28;20112;-59
2021/08/03 06:32:10;;;;;;;5.32;2.67;;;20.50;61.80;;;;;;5060061;28;20520;-59
2021/08/03 06:34:38;;;;;;;7.95;3.33;;;20.40;61.70;;;;;;5053535;28;20484;-59
2021/08/03 06:37:04;;;;;;;5.57;2.70;;;20.30;61.70;;;;;;5058046;28;20484;-59
2021/08/03 06:39:30;;;;;;;7.90;3.20;;;20.20;61.70;;;;;;5066689;28;20039;-59
2021/08/03 06:42:01;;;;;;;7.78;2.80;;;20.20;62.20;;;;;;5053843;28;20435;-59
2021/08/03 06:44:44;;;;;;;6.47;2.72;;;20.20;62.20;;;;;;5054319;28;20028;-58
2021/08/03 06:47:13;;;;;;;11.10;3.38;;;20.10;62.20;;;;;;5053878;28;20028;-59
2021/08/03 06:49:43;;;;;;;14.35;3.10;;;20.10;62.10;;;;;;5053950;28;20029;-59
2021/08/03 06:52:10;;;;;;;6.50;2.75;;;20.10;62.40;;;;;;5053557;28;20056;-59
2021/08/03 06:54:38;;;;;;;7.47;3.13;;;20.10;62.40;;;;;;5072351;28;20036;-59
2021/08/03 06:57:11;;;;;;;4.50;2.10;;;20.10;62.30;;;;;;5073740;28;20029;-59
2021/08/03 06:59:46;;;;;;;5.07;2.20;;;20.30;62.10;;;;;;5075399;28;20028;-59
2021/08/03 07:02:21;;;;;;;5.75;1.90;;;20.30;62.00;;;;;;5075934;28;20024;-60
2021/08/03 07:04:56;;;;;;;5.28;2.10;;;20.40;61.90;;;;;;5073604;28;20472;-60
2021/08/03 07:07:22;;;;;;;6.93;2.20;;;20.40;61.70;;;;;;5073604;28;20037;-59
2021/08/03 07:09:49;;;;;;;6.35;2.15;;;20.50;61.60;;;;;;5073537;28;20593;-60
2021/08/03 07:12:15;;;;;;;5.35;1.73;;;20.50;61.40;;;;;;5073273;28;20039;-59
2021/08/03 07:14:41;;;;;;;5.30;1.90;;;20.50;61.40;;;;;;5073368;28;20009;-59
2021/08/03 07:17:11;;;;;;;5.05;1.80;;;20.50;61.30;;;;;;5073136;28;20565;-60
2021/08/03 07:19:38;;;;;;;3.47;1.60;;;20.60;61.20;;;;;;5073213;28;20043;-60
2021/08/03 07:22:04;;;;;;;3.55;1.60;;;20.60;61.20;;;;;;5072723;28;20518;-60
2021/08/03 07:24:30;;;;;;;4.30;2.00;;;20.60;61.10;;;;;;5073041;28;20128;-60
2021/08/03 07:26:57;;;;;;;4.75;1.70;;;20.60;61.10;;;;;;5073208;28;20090;-61
2021/08/03 07:29:23;;;;;;;5.30;1.75;;;20.70;61.10;;;;;;5073217;28;20021;-61
2021/08/03 07:31:49;;;;;;;4.25;1.90;;;20.70;61.10;;;;;;5072791;28;20103;-60
2021/08/03 07:34:14;;;;;;;5.55;1.65;;;20.70;61.00;;;;;;5072830;28;20079;-59
2021/08/03 07:36:40;;;;;;;4.72;1.85;;;20.60;61.00;;;;;;5072756;28;20077;-59
2021/08/03 07:39:08;;;;;;;3.78;1.65;;;20.70;61.00;;;;;;5072800;28;20052;-59
2021/08/03 07:41:37;;;;;;;5.25;2.08;;;20.70;61.00;;;;;;5072566;28;20024;-59
2021/08/03 07:44:04;;;;;;;4.32;1.75;;;20.70;60.90;;;;;;5072914;28;20108;-59
2021/08/03 07:46:31;;;;;;;4.72;1.70;;;20.70;61.00;;;;;;5072907;28;20024;-59
2021/08/03 07:48:58;;;;;;;4.70;1.98;;;20.70;60.90;;;;;;5073004;28;20359;-60
2021/08/03 07:51:25;;;;;;;4.50;1.75;;;20.70;60.90;;;;;;5072236;28;20107;-61
2021/08/03 07:53:50;;;;;;;5.25;2.00;;;20.70;60.90;;;;;;5072571;28;20476;-59
2021/08/03 07:56:17;;;;;;;3.85;1.90;;;20.70;60.90;;;;;;5072581;28;20073;-60
2021/08/03 07:58:43;;;;;;;3.38;1.60;;;20.70;60.90;;;;;;5072549;28;20076;-60
2021/08/03 08:01:09;;;;;;;4.05;1.70;;;20.80;60.90;;;;;;5072371;28;20059;-60
2021/08/03 08:03:36;;;;;;;5.28;2.38;;;20.80;60.90;;;;;;5072626;28;20029;-60
2021/08/03 08:06:03;;;;;;;3.85;1.80;;;20.70;60.90;;;;;;5072660;28;20025;-60
2021/08/03 08:08:29;;;;;;;3.53;1.55;;;20.70;60.90;;;;;;5072826;28;20033;-59
2021/08/03 08:10:55;;;;;;;6.43;1.60;;;20.70;61.00;;;;;;5072088;28;20027;-61
2021/08/03 08:13:21;;;;;;;3.92;1.83;;;20.80;60.90;;;;;;5071880;28;20021;-60
2021/08/03 08:15:46;;;;;;;5.10;2.00;;;20.80;60.80;;;;;;5072439;28;20029;-59
2021/08/03 08:18:12;;;;;;;4.68;1.80;;;20.80;60.90;;;;;;5072244;28;20037;-60
2021/08/03 08:20:39;;;;;;;4.68;2.05;;;20.80;60.80;;;;;;5071930;28;20427;-58
2021/08/03 08:23:05;;;;;;;3.85;1.70;;;20.80;60.80;;;;;;5072228;28;20024;-60
2021/08/03 08:25:31;;;;;;;4.20;1.80;;;20.80;60.80;;;;;;5072263;28;20021;-60
2021/08/03 08:27:57;;;;;;;4.43;1.73;;;20.80;60.70;;;;;;5072437;28;20031;-59
2021/08/03 08:30:22;;;;;;;4.20;1.70;;;20.80;60.70;;;;;;5072074;28;20020;-59
2021/08/03 08:32:48;;;;;;;4.03;1.90;;;20.80;60.70;;;;;;5072215;28;20063;-60
2021/08/03 08:35:13;;;;;;;4.13;1.73;;;20.80;60.70;;;;;;5072073;28;20098;-60
2021/08/03 08:37:39;;;;;;;4.32;1.80;;;20.90;60.70;;;;;;5072274;28;20036;-59
2021/08/03 08:40:06;;;;;;;3.92;1.70;;;20.90;60.60;;;;;;5071939;28;20036;-59
2021/08/03 08:42:33;;;;;;;4.15;1.80;;;20.90;60.60;;;;;;5072165;28;20036;-60
2021/08/03 08:44:59;;;;;;;4.82;1.80;;;20.90;60.60;;;;;;5072216;28;20578;-59
2021/08/03 08:47:26;;;;;;;4.93;2.22;;;21.00;60.50;;;;;;5072049;28;20024;-59
2021/08/03 08:49:52;;;;;;;2.83;1.55;;;21.00;60.50;;;;;;5072450;28;20029;-60
2021/08/03 08:52:18;;;;;;;5.03;1.70;;;21.00;60.50;;;;;;5071959;28;20016;-59
2021/08/03 08:54:44;;;;;;;5.45;2.25;;;21.00;60.50;;;;;;5072002;28;20505;-59
2021/08/03 08:57:10;;;;;;;5.53;2.25;;;21.00;60.50;;;;;;5072591;28;20040;-61
2021/08/03 08:59:36;;;;;;;5.20;1.70;;;21.00;60.40;;;;;;5072189;28;20099;-61
2021/08/03 09:02:03;;;;;;;5.63;1.90;;;21.00;60.30;;;;;;5071712;28;20029;-60
2021/08/03 09:04:29;;;;;;;5.60;1.83;;;21.00;60.30;;;;;;5072056;28;20028;-60
2021/08/03 09:07:06;;;;;;;3.40;1.70;;;21.00;60.40;;;;;;5072195;28;20074;-60
2021/08/03 09:09:45;;;;;;;3.75;1.70;;;21.00;60.40;;;;;;5072103;28;20086;-60
2021/08/03 09:12:12;;;;;;;5.68;2.00;;;21.10;60.30;;;;;;5071760;28;20020;-60
2021/08/03 09:14:43;;;;;;;5.47;1.60;;;21.10;60.20;;;;;;5072119;28;20028;-60
2021/08/03 09:17:10;;;;;;;5.75;2.17;;;21.10;60.20;;;;;;5072004;28;20111;-60
2021/08/03 09:19:37;;;;;;;3.67;1.90;;;21.10;60.20;;;;;;5071905;28;20549;-60
2021/08/03 09:22:19;;;;;;;3.67;1.88;;;21.10;60.20;;;;;;5071512;28;20353;-60
2021/08/03 09:24:47;;;;;;;5.68;1.73;;;21.10;60.20;;;;;;5074631;28;20113;-59
2021/08/03 09:27:33;;;;;;;3.72;1.65;;;21.10;60.10;;;;;;5075220;28;20024;-59
2021/08/03 09:29:59;;;;;;;4.20;1.60;;;21.10;60.20;;;;;;5075284;28;20028;-59
2021/08/03 09:32:36;;;;;;;3.33;1.80;;;21.10;60.10;;;;;;5075106;28;20020;-59
2021/08/03 09:35:13;;;;;;;4.50;1.95;;;21.10;60.10;;;;;;5075098;28;20060;-60
2021/08/03 09:37:40;;;;;;;4.65;1.70;;;21.10;60.10;;;;;;5075107;28;20024;-60
2021/08/03 09:40:28;;;;;;;4.40;1.80;;;21.10;60.10;;;;;;5074927;28;20024;-60
2021/08/03 09:43:04;;;;;;;5.22;2.13;;;21.20;60.00;;;;;;5074846;28;20043;-60
2021/08/03 09:45:33;;;;;;;4.72;2.20;;;21.20;59.90;;;;;;5075192;28;20107;-59
2021/08/03 09:48:13;;;;;;;4.03;1.63;;;21.20;60.00;;;;;;5075011;28;20025;-60
2021/08/03 09:51:01;;;;;;;6.22;2.15;;;21.20;59.90;;;;;;5074595;28;20494;-59
2021/08/03 09:53:52;;;;;;;5.78;2.00;;;21.20;59.90;;;;;;5075031;28;20082;-59
2021/08/03 09:56:26;;;;;;;4.13;1.90;;;21.20;59.90;;;;;;5072260;28;20043;-59
2021/08/03 09:59:00;;;;;;;3.72;1.50;;;21.20;59.80;;;;;;5076157;28;20033;-59
2021/08/03 10:01:33;;;;;;;4.70;1.80;;;21.20;59.90;;;;;;5077994;28;20480;-59
2021/08/03 10:04:04;;;;;;;3.88;1.67;;;21.20;59.80;;;;;;5075229;28;20037;-59
2021/08/03 10:06:31;;;;;;;3.60;1.75;;;21.20;59.80;;;;;;5074801;28;20017;-59
2021/08/03 10:08:58;;;;;;;3.97;1.63;;;21.30;59.80;;;;;;5074522;28;20422;-59
2021/08/03 10:11:24;;;;;;;5.65;1.58;;;21.20;59.80;;;;;;5074048;28;20052;-59
2021/08/03 10:13:51;;;;;;;3.35;1.77;;;21.30;59.80;;;;;;5074481;28;20020;-59
2021/08/03 10:16:17;;;;;;;4.20;1.80;;;21.20;59.80;;;;;;5074549;28;20028;-59
2021/08/03 10:18:46;;;;;;;4.72;1.90;;;21.30;59.80;;;;;;5074192;28;20029;-59
2021/08/03 10:21:35;;;;;;;3.63;1.70;;;21.30;59.70;;;;;;5074168;28;20032;-60
2021/08/03 10:24:38;;;;;;;4.07;1.45;;;21.20;59.70;;;;;;5079762;28;20028;-60
2021/08/03 10:27:12;;;;;;;3.35;1.60;;;21.30;59.70;;;;;;5074403;28;20021;-60
2021/08/03 10:29:52;;;;;;;3.72;1.58;;;21.30;59.70;;;;;;5074405;28;20480;-59
2021/08/03 10:32:37;;;;;;;3.53;1.45;;;21.30;59.80;;;;;;5073895;28;20417;-60
2021/08/03 10:35:03;;;;;;;3.53;1.50;;;21.30;59.80;;;;;;5072952;28;20087;-60
2021/08/03 10:37:56;;;;;;;5.07;1.77;;;21.30;59.80;;;;;;5073911;28;20458;-59
2021/08/03 10:40:48;;;;;;;4.53;1.90;;;21.30;59.80;;;;;;5073107;28;20472;-59
2021/08/03 10:43:19;;;;;;;5.25;1.63;;;21.30;59.80;;;;;;5073688;28;20418;-60
2021/08/03 10:45:46;;;;;;;4.00;1.67;;;21.30;59.80;;;;;;5074261;28;20029;-59
2021/08/03 10:48:36;;;;;;;4.82;1.98;;;21.30;59.70;;;;;;5073850;28;20115;-60
2021/08/03 10:51:17;;;;;;;4.10;1.45;;;21.40;59.70;;;;;;5073423;28;20089;-59
2021/08/03 10:54:07;;;;;;;3.67;1.60;;;21.30;59.70;;;;;;5073924;28;20025;-59
2021/08/03 10:56:51;;;;;;;3.60;1.83;;;21.30;59.70;;;;;;5073690;28;20460;-59
2021/08/03 10:59:34;;;;;;;3.72;1.60;;;21.30;59.50;;;;;;5073740;28;20040;-59
2021/08/03 11:02:02;;;;;;;7.03;2.17;;;21.30;59.40;;;;;;5073513;28;20041;-60
2021/08/03 11:04:47;;;;;;;4.25;1.70;;;21.30;59.50;;;;;;5073560;28;20025;-59
2021/08/03 11:07:24;;;;;;;3.80;1.65;;;21.30;59.40;;;;;;5073436;28;20021;-59
2021/08/03 11:09:51;;;;;;;2.53;1.35;;;21.40;59.50;;;;;;5073316;28;20517;-59
2021/08/03 11:12:36;;;;;;;3.08;1.55;;;21.40;59.40;;;;;;5072933;28;20056;-59
2021/08/03 11:15:20;;;;;;;4.00;1.92;;;21.50;59.40;;;;;;5073231;28;20024;-59
2021/08/03 11:17:52;;;;;;;4.50;1.70;;;21.40;59.30;;;;;;5073215;28;20031;-59
2021/08/03 11:20:36;;;;;;;5.30;1.73;;;21.50;59.30;;;;;;5072777;28;20035;-59
2021/08/03 11:23:04;;;;;;;4.72;1.42;;;21.50;59.20;;;;;;5073137;28;20547;-60
2021/08/03 11:25:30;;;;;;;3.00;1.65;;;21.50;59.10;;;;;;5073161;28;20071;-60
2021/08/03 11:28:16;;;;;;;4.55;1.67;;;21.50;59.10;;;;;;5073426;28;20074;-60
2021/08/03 11:30:44;;;;;;;4.18;1.50;;;21.50;59.10;;;;;;5072535;28;20025;-59
2021/08/03 11:33:11;;;;;;;4.32;1.60;;;21.50;59.10;;;;;;5072978;28;20436;-60
2021/08/03 11:35:37;;;;;;;3.50;1.70;;;21.50;59.00;;;;;;5072770;28;20051;-60
2021/08/03 11:38:09;;;;;;;4.97;1.60;;;21.50;59.00;;;;;;5072948;28;20609;-60
2021/08/03 11:40:36;;;;;;;3.33;1.23;;;21.50;59.00;;;;;;5072532;28;20028;-60
2021/08/03 11:43:02;;;;;;;3.65;1.70;;;21.50;59.00;;;;;;5072801;28;20039;-60
2021/08/03 11:45:29;;;;;;;3.50;1.60;;;21.50;59.00;;;;;;5072771;28;20032;-59
2021/08/03 11:47:57;;;;;;;4.25;1.90;;;21.50;59.00;;;;;;5072669;28;20499;-59
2021/08/03 11:50:32;;;;;;;3.67;1.50;;;21.50;59.00;;;;;;5072425;28;20136;-59
2021/08/03 11:53:17;;;;;;;2.42;1.23;;;21.50;58.90;;;;;;5072703;28;20107;-59
2021/08/03 11:55:45;;;;;;;3.58;1.58;;;21.50;58.80;;;;;;5072732;28;20031;-59
2021/08/03 11:58:11;;;;;;;2.83;1.33;;;21.50;58.90;;;;;;5072782;28;20083;-59
2021/08/03 12:00:37;;;;;;;4.63;1.65;;;21.50;58.80;;;;;;5072774;28;20474;-59
2021/08/03 12:03:03;;;;;;;3.95;1.63;;;21.50;58.80;;;;;;5071816;28;20025;-58
2021/08/03 12:05:40;;;;;;;3.65;1.70;;;21.50;58.80;;;;;;5071735;28;20021;-59
2021/08/03 12:08:10;;;;;;;5.13;1.80;;;21.60;58.70;;;;;;5071744;28;20032;-59
2021/08/03 12:10:37;;;;;;;3.28;1.45;;;21.50;58.80;;;;;;5071701;28;20021;-59
2021/08/03 12:13:06;;;;;;;3.70;1.60;;;21.50;58.80;;;;;;5071725;28;20017;-59
2021/08/03 12:15:43;;;;;;;2.55;1.40;;;21.50;58.80;;;;;;5071760;28;20066;-59
2021/08/03 12:18:09;;;;;;;4.82;2.00;;;21.50;58.80;;;;;;5072883;28;20040;-59
2021/08/03 12:20:41;;;;;;;2.53;1.40;;;21.50;58.80;;;;;;5072679;28;20021;-59
2021/08/03 12:23:19;;;;;;;2.88;1.42;;;21.50;58.80;;;;;;5072984;28;20042;-59
2021/08/03 12:26:06;;;;;;;4.57;2.10;;;21.50;58.80;;;;;;5072807;28;20025;-59
2021/08/03 12:28:43;;;;;;;4.45;1.60;;;21.50;58.80;;;;;;5072836;28;20021;-59
2021/08/03 12:31:20;;;;;;;4.20;1.45;;;21.50;58.70;;;;;;5072818;28;20031;-60
2021/08/03 12:33:47;;;;;;;2.50;1.40;;;21.50;58.80;;;;;;5072632;28;20036;-60
2021/08/03 12:36:16;;;;;;;3.25;1.30;;;21.50;58.80;;;;;;5072556;28;20399;-59
2021/08/03 12:39:02;;;;;;;3.97;1.48;;;21.50;58.80;;;;;;5072394;28;20399;-59
2021/08/03 12:41:30;;;;;;;2.65;1.42;;;21.50;58.80;;;;;;5072881;28;20043;-59
2021/08/03 12:43:57;;;;;;;3.53;1.30;;;21.50;58.70;;;;;;5072630;28;20108;-59
2021/08/03 12:46:39;;;;;;;4.50;1.70;;;21.50;58.70;;;;;;5072413;28;20048;-59
2021/08/03 12:49:05;;;;;;;2.92;1.40;;;21.50;58.80;;;;;;5072394;28;20020;-59
2021/08/03 12:51:33;;;;;;;5.25;1.58;;;21.50;58.80;;;;;;5072349;28;20414;-59
2021/08/03 12:54:16;;;;;;;2.40;1.30;;;21.50;58.70;;;;;;5072359;28;20431;-59
2021/08/03 12:56:56;;;;;;;3.30;1.50;;;21.50;58.70;;;;;;5072361;28;20439;-59
2021/08/03 12:59:33;;;;;;;3.42;1.45;;;21.50;58.60;;;;;;5075027;28;20024;-59